createdAt,value
2018-08-24T00:00:25.625Z,9.37
2018-08-24T00:01:29.009Z,9.33
2018-08-24T00:02:32.339Z,9.17
2018-08-24T00:03:35.706Z,8.73
2018-08-24T00:04:39.030Z,9.07
2018-08-24T00:05:42.366Z,9.37
2018-08-24T00:06:45.709Z,9.20
2018-08-24T00:07:49.056Z,9.67
2018-08-24T00:08:52.478Z,9.33
2018-08-24T00:09:55.826Z,9.10
2018-08-24T00:10:59.149Z,9.40
2018-08-24T00:12:02.488Z,9.83
2018-08-24T00:13:06.336Z,9.70
2018-08-24T00:14:10.707Z,10.00
2018-08-24T00:15:14.068Z,10.57
2018-08-24T00:16:21.616Z,9.30
2018-08-24T00:17:29.844Z,9.50
2018-08-24T00:18:33.177Z,10.20
2018-08-24T00:19:36.497Z,9.17
2018-08-24T00:20:39.827Z,9.47
2018-08-24T00:21:43.423Z,10.07
2018-08-24T00:22:53.607Z,11.00
2018-08-24T00:23:56.925Z,10.20
2018-08-24T00:25:00.238Z,10.87
2018-08-24T00:26:03.619Z,11.93
2018-08-24T00:27:06.983Z,12.00
2018-08-24T00:28:10.364Z,12.10
2018-08-24T00:29:13.694Z,10.87
2018-08-24T00:30:17.019Z,11.00
2018-08-24T00:31:20.348Z,10.90
2018-08-24T00:32:23.713Z,12.20
2018-08-24T00:33:27.030Z,10.23
2018-08-24T00:34:30.352Z,11.83
2018-08-24T00:35:33.694Z,11.50
2018-08-24T00:36:37.054Z,12.20
2018-08-24T00:37:40.424Z,12.20
2018-08-24T00:38:43.748Z,12.07
2018-08-24T00:39:47.069Z,11.53
2018-08-24T00:40:54.647Z,12.00
2018-08-24T00:41:58.009Z,11.53
2018-08-24T00:43:01.372Z,11.57
2018-08-24T00:44:04.743Z,11.37
2018-08-24T00:45:08.098Z,12.77
2018-08-24T00:46:11.419Z,12.23
2018-08-24T00:47:14.742Z,13.40
2018-08-24T00:48:18.103Z,11.60
2018-08-24T00:49:21.424Z,14.03
2018-08-24T00:50:24.735Z,13.20
2018-08-24T00:51:28.060Z,14.30
2018-08-24T00:52:31.379Z,13.93
2018-08-24T00:53:37.310Z,13.90
2018-08-24T00:54:40.684Z,13.37
2018-08-24T00:55:44.056Z,14.80
2018-08-24T00:56:47.386Z,15.13
2018-08-24T00:57:50.710Z,14.53
2018-08-24T00:58:54.093Z,15.53
2018-08-24T00:59:57.399Z,15.00
2018-08-24T01:01:01.580Z,14.60
2018-08-24T01:02:04.920Z,15.30
2018-08-24T01:03:08.259Z,14.63
2018-08-24T01:04:11.625Z,15.10
2018-08-24T01:05:14.951Z,14.93
2018-08-24T01:06:23.209Z,15.20
2018-08-24T01:07:26.567Z,15.90
2018-08-24T01:08:29.883Z,15.37
2018-08-24T01:09:33.286Z,14.70
2018-08-24T01:10:37.180Z,13.33
2018-08-24T01:11:45.912Z,14.67
2018-08-24T01:12:49.234Z,15.00
2018-08-24T01:13:52.574Z,14.30
2018-08-24T01:14:55.918Z,14.13
2018-08-24T01:16:00.392Z,14.43
2018-08-24T01:17:09.248Z,14.90
2018-08-24T01:18:15.890Z,15.00
2018-08-24T01:19:19.214Z,13.93
2018-08-24T01:20:26.763Z,15.17
2018-08-24T01:21:30.094Z,13.33
2018-08-24T01:22:33.467Z,13.60
2018-08-24T01:23:36.803Z,14.20
2018-08-24T01:24:40.157Z,12.80
2018-08-24T01:25:43.478Z,13.07
2018-08-24T01:26:52.189Z,14.73
2018-08-24T01:27:55.575Z,14.30
2018-08-24T01:28:58.944Z,13.47
2018-08-24T01:30:02.274Z,13.60
2018-08-24T01:31:09.281Z,15.00
2018-08-24T01:32:14.491Z,13.40
2018-08-24T01:33:18.452Z,13.30
2018-08-24T01:34:21.775Z,13.33
2018-08-24T01:35:25.091Z,13.40
2018-08-24T01:36:28.416Z,11.97
2018-08-24T01:37:31.739Z,11.80
2018-08-24T01:38:35.130Z,12.10
2018-08-24T01:39:38.452Z,12.93
2018-08-24T01:40:41.775Z,14.60
2018-08-24T01:41:45.108Z,13.90
2018-08-24T01:42:48.435Z,14.60
2018-08-24T01:43:51.791Z,14.80
2018-08-24T01:44:55.098Z,14.90
2018-08-24T01:46:14.355Z,13.30
2018-08-24T01:47:17.687Z,12.83
2018-08-24T01:48:21.043Z,14.93
2018-08-24T01:49:24.479Z,16.50
2018-08-24T01:50:27.811Z,15.17
2018-08-24T01:51:31.195Z,16.65
2018-08-24T01:52:34.527Z,16.37
2018-08-24T01:53:37.902Z,16.05
2018-08-24T01:54:41.226Z,17.27
2018-08-24T01:55:44.572Z,17.02
2018-08-24T01:56:47.899Z,14.73
2018-08-24T01:57:51.235Z,14.63
2018-08-24T01:58:54.626Z,14.18
2018-08-24T01:59:57.966Z,14.13
2018-08-24T02:01:01.327Z,14.03
2018-08-24T02:02:04.646Z,13.18
2018-08-24T02:03:07.984Z,14.10
2018-08-24T02:04:11.464Z,14.68
2018-08-24T02:05:14.793Z,13.98
2018-08-24T02:06:18.126Z,14.25
2018-08-24T02:07:21.451Z,14.60
2018-08-24T02:08:24.779Z,13.90
2018-08-24T02:09:28.145Z,13.48
2018-08-24T02:10:31.538Z,13.87
2018-08-24T02:11:34.888Z,12.43
2018-08-24T02:12:43.594Z,13.20
2018-08-24T02:13:52.380Z,14.20
2018-08-24T02:14:55.760Z,15.43
2018-08-24T02:15:59.088Z,15.65
2018-08-24T02:17:02.411Z,14.60
2018-08-24T02:18:11.043Z,13.60
2018-08-24T02:19:15.775Z,15.50
2018-08-24T02:20:24.563Z,14.30
2018-08-24T02:21:33.239Z,15.60
2018-08-24T02:22:36.554Z,14.97
2018-08-24T02:23:39.890Z,16.33
2018-08-24T02:24:43.227Z,15.30
2018-08-24T02:25:46.603Z,13.97
2018-08-24T02:26:49.922Z,15.50
2018-08-24T02:27:53.282Z,15.80
2018-08-24T02:28:56.650Z,15.80
2018-08-24T02:29:59.986Z,15.45
2018-08-24T02:31:03.422Z,15.70
2018-08-24T02:32:07.350Z,15.20
2018-08-24T02:33:10.707Z,16.07
2018-08-24T02:34:14.300Z,16.42
2018-08-24T02:35:19.537Z,15.80
2018-08-24T02:36:22.902Z,14.50
2018-08-24T02:37:26.338Z,15.98
2018-08-24T02:38:29.700Z,15.90
2018-08-24T02:39:33.024Z,16.45
2018-08-24T02:40:36.359Z,15.35
2018-08-24T02:41:40.095Z,17.48
2018-08-24T02:42:43.503Z,16.55
2018-08-24T02:43:46.838Z,17.02
2018-08-24T02:44:50.158Z,18.02
2018-08-24T02:45:53.474Z,15.97
2018-08-24T02:46:56.840Z,15.45
2018-08-24T02:48:00.220Z,16.37
2018-08-24T02:49:03.548Z,15.53
2018-08-24T02:50:06.988Z,15.50
2018-08-24T02:51:10.318Z,15.13
2018-08-24T02:52:13.685Z,15.15
2018-08-24T02:53:17.024Z,14.50
2018-08-24T02:54:20.414Z,14.93
2018-08-24T02:55:23.754Z,14.40
2018-08-24T02:56:27.078Z,15.30
2018-08-24T02:57:30.459Z,14.63
2018-08-24T02:58:33.799Z,14.90
2018-08-24T02:59:37.159Z,14.53
2018-08-24T03:00:40.474Z,15.00
2018-08-24T03:01:43.805Z,15.60
2018-08-24T03:02:47.155Z,15.90
2018-08-24T03:03:50.477Z,16.57
2018-08-24T03:04:54.043Z,15.43
2018-08-24T03:05:57.374Z,14.80
2018-08-24T03:07:00.699Z,15.48
2018-08-24T03:08:04.020Z,15.93
2018-08-24T03:09:08.940Z,15.00
2018-08-24T03:10:12.343Z,14.80
2018-08-24T03:11:15.679Z,13.40
2018-08-24T03:12:19.012Z,14.30
2018-08-24T03:13:22.395Z,12.57
2018-08-24T03:14:25.726Z,13.60
2018-08-24T03:15:29.091Z,13.50
2018-08-24T03:16:32.506Z,11.03
2018-08-24T03:17:41.172Z,12.47
2018-08-24T03:18:44.535Z,13.20
2018-08-24T03:19:47.976Z,13.35
2018-08-24T03:20:51.303Z,12.15
2018-08-24T03:21:54.639Z,10.98
2018-08-24T03:22:58.044Z,11.80
2018-08-24T03:24:01.364Z,11.55
2018-08-24T03:25:04.711Z,11.50
2018-08-24T03:26:08.034Z,10.25
2018-08-24T03:27:11.366Z,11.50
2018-08-24T03:28:14.726Z,10.65
2018-08-24T03:29:18.056Z,10.48
2018-08-24T03:30:21.376Z,11.23
2018-08-24T03:31:24.702Z,10.87
2018-08-24T03:32:28.048Z,11.10
2018-08-24T03:33:31.411Z,10.50
2018-08-24T03:34:34.843Z,10.38
2018-08-24T03:35:38.163Z,10.82
2018-08-24T03:36:41.552Z,10.05
2018-08-24T03:37:44.879Z,10.13
2018-08-24T03:38:48.196Z,11.85
2018-08-24T03:39:51.516Z,10.53
2018-08-24T03:40:54.840Z,10.10
2018-08-24T03:41:58.194Z,11.70
2018-08-24T03:43:01.552Z,11.18
2018-08-24T03:44:05.038Z,11.20
2018-08-24T03:45:08.359Z,9.23
2018-08-24T03:46:11.689Z,10.10
2018-08-24T03:47:15.039Z,9.58
2018-08-24T03:48:18.431Z,9.23
2018-08-24T03:49:21.848Z,9.50
2018-08-24T03:50:25.178Z,9.60
2018-08-24T03:51:28.555Z,9.33
2018-08-24T03:52:31.883Z,9.95
2018-08-24T03:53:35.219Z,9.15
2018-08-24T03:54:38.580Z,8.28
2018-08-24T03:55:43.500Z,7.85
2018-08-24T03:56:51.073Z,8.23
2018-08-24T03:57:54.395Z,7.55
2018-08-24T03:58:57.704Z,7.80
2018-08-24T04:00:01.084Z,7.65
2018-08-24T04:01:04.493Z,8.33
2018-08-24T04:02:10.795Z,7.30
2018-08-24T04:03:20.843Z,7.42
2018-08-24T04:04:24.500Z,7.05
2018-08-24T04:05:27.872Z,7.90
2018-08-24T04:06:31.183Z,7.60
2018-08-24T04:07:34.502Z,7.15
2018-08-24T04:08:37.808Z,7.50
2018-08-24T04:09:41.123Z,8.13
2018-08-24T04:10:44.503Z,7.50
2018-08-24T04:11:47.871Z,7.75
2018-08-24T04:12:51.292Z,8.05
2018-08-24T04:13:54.546Z,7.70
2018-08-24T04:14:57.855Z,7.00
2018-08-24T04:16:01.192Z,8.50
2018-08-24T04:17:09.943Z,7.55
2018-08-24T04:18:13.319Z,8.40
2018-08-24T04:19:24.480Z,7.92
2018-08-24T04:20:27.805Z,7.80
2018-08-24T04:21:31.119Z,7.78
2018-08-24T04:22:34.449Z,7.67
2018-08-24T04:23:37.813Z,7.58
2018-08-24T04:24:41.131Z,8.10
2018-08-24T04:25:44.513Z,8.75
2018-08-24T04:26:55.190Z,7.40
2018-08-24T04:27:58.519Z,7.78
2018-08-24T04:29:01.891Z,8.18
2018-08-24T04:30:05.350Z,8.08
2018-08-24T04:31:08.784Z,8.45
2018-08-24T04:32:12.110Z,7.65
2018-08-24T04:33:15.438Z,7.60
2018-08-24T04:34:18.788Z,7.80
2018-08-24T04:35:22.124Z,7.97
2018-08-24T04:36:25.487Z,9.25
2018-08-24T04:37:28.867Z,8.75
2018-08-24T04:38:32.195Z,8.60
2018-08-24T04:39:35.531Z,7.37
2018-08-24T04:40:38.867Z,7.75
2018-08-24T04:41:43.009Z,8.10
2018-08-24T04:42:46.410Z,7.05
2018-08-24T04:43:49.746Z,8.25
2018-08-24T04:44:53.063Z,8.53
2018-08-24T04:45:56.398Z,8.73
2018-08-24T04:46:59.704Z,8.93
2018-08-24T04:48:03.089Z,8.43
2018-08-24T04:49:06.813Z,7.65
2018-08-24T04:50:10.135Z,7.30
2018-08-24T04:51:13.467Z,8.03
2018-08-24T04:52:16.820Z,7.25
2018-08-24T04:53:20.175Z,7.40
2018-08-24T04:54:23.503Z,7.12
2018-08-24T04:55:26.813Z,8.38
2018-08-24T04:56:30.617Z,6.95
2018-08-24T04:57:33.950Z,7.00
2018-08-24T04:58:37.312Z,6.90
2018-08-24T04:59:40.649Z,7.97
2018-08-24T05:00:43.984Z,7.83
2018-08-24T05:01:47.329Z,7.45
2018-08-24T05:02:50.662Z,7.47
2018-08-24T05:03:54.014Z,6.95
2018-08-24T05:04:57.346Z,7.30
2018-08-24T05:06:00.671Z,7.10
2018-08-24T05:07:04.020Z,7.00
2018-08-24T05:08:07.345Z,7.35
2018-08-24T05:09:11.180Z,6.67
2018-08-24T05:10:14.552Z,7.00
2018-08-24T05:11:17.886Z,8.45
2018-08-24T05:12:21.211Z,7.05
2018-08-24T05:13:24.531Z,6.87
2018-08-24T05:14:27.869Z,7.40
2018-08-24T05:15:31.237Z,7.42
2018-08-24T05:16:34.565Z,7.50
2018-08-24T05:17:37.896Z,7.47
2018-08-24T05:18:41.239Z,8.05
2018-08-24T05:19:44.559Z,7.62
2018-08-24T05:20:47.932Z,7.60
2018-08-24T05:21:51.256Z,7.72
2018-08-24T05:22:54.648Z,8.08
2018-08-24T05:23:57.966Z,7.03
2018-08-24T05:25:01.282Z,7.80
2018-08-24T05:26:04.630Z,7.25
2018-08-24T05:27:07.971Z,7.28
2018-08-24T05:28:11.324Z,8.08
2018-08-24T05:29:14.655Z,7.28
2018-08-24T05:30:17.983Z,7.92
2018-08-24T05:31:21.330Z,8.43
2018-08-24T05:32:24.656Z,6.85
2018-08-24T05:33:27.979Z,5.70
2018-08-24T05:34:31.325Z,6.12
2018-08-24T05:35:34.715Z,5.70
2018-08-24T05:36:37.995Z,6.00
2018-08-24T05:37:41.315Z,5.97
2018-08-24T05:38:44.664Z,6.08
2018-08-24T05:39:47.990Z,5.80
2018-08-24T05:40:51.367Z,6.28
2018-08-24T05:41:54.706Z,5.67
2018-08-24T05:42:58.011Z,5.35
2018-08-24T05:44:01.344Z,5.85
2018-08-24T05:45:05.148Z,5.33
2018-08-24T05:46:08.492Z,7.22
2018-08-24T05:47:11.812Z,6.08
2018-08-24T05:48:15.136Z,6.83
2018-08-24T05:49:18.460Z,6.87
2018-08-24T05:50:21.788Z,6.60
2018-08-24T05:51:25.186Z,6.10
2018-08-24T05:52:28.509Z,6.17
2018-08-24T05:53:31.895Z,6.35
2018-08-24T05:54:35.232Z,6.20
2018-08-24T05:55:39.368Z,5.60
2018-08-24T05:56:42.704Z,5.40
2018-08-24T05:57:46.019Z,5.58
2018-08-24T05:58:49.837Z,5.85
2018-08-24T05:59:53.159Z,5.20
2018-08-24T06:00:56.498Z,5.50
2018-08-24T06:01:59.856Z,5.92
2018-08-24T06:03:03.170Z,6.00
2018-08-24T06:04:06.518Z,5.47
2018-08-24T06:05:09.863Z,6.00
2018-08-24T06:06:13.240Z,6.30
2018-08-24T06:07:16.567Z,5.50
2018-08-24T06:08:19.900Z,5.10
2018-08-24T06:09:23.327Z,5.75
2018-08-24T06:10:26.670Z,5.80
2018-08-24T06:11:30.021Z,5.17
2018-08-24T06:12:33.437Z,5.65
2018-08-24T06:13:36.755Z,5.12
2018-08-24T06:14:40.078Z,5.25
2018-08-24T06:15:43.479Z,5.70
2018-08-24T06:16:52.391Z,5.95
2018-08-24T06:17:56.658Z,5.25
2018-08-24T06:19:00.604Z,4.60
2018-08-24T06:20:03.984Z,5.60
2018-08-24T06:21:07.396Z,5.58
2018-08-24T06:22:10.725Z,5.55
2018-08-24T06:23:14.544Z,5.40
2018-08-24T06:24:18.207Z,5.50
2018-08-24T06:25:21.572Z,5.78
2018-08-24T06:26:24.934Z,5.78
2018-08-24T06:27:28.279Z,6.70
2018-08-24T06:28:31.619Z,6.33
2018-08-24T06:29:34.936Z,6.47
2018-08-24T06:30:38.311Z,6.12
2018-08-24T06:31:48.289Z,6.78
2018-08-24T06:32:51.689Z,6.50
2018-08-24T06:33:54.971Z,5.65
2018-08-24T06:34:58.373Z,7.72
2018-08-24T06:36:01.734Z,7.20
2018-08-24T06:37:05.194Z,6.55
2018-08-24T06:38:08.435Z,6.15
2018-08-24T06:39:13.483Z,7.00
2018-08-24T06:40:16.848Z,7.15
2018-08-24T06:41:20.175Z,6.72
2018-08-24T06:42:23.499Z,7.55
2018-08-24T06:43:26.841Z,7.35
2018-08-24T06:44:30.158Z,7.20
2018-08-24T06:45:33.519Z,6.80
2018-08-24T06:46:36.851Z,7.42
2018-08-24T06:47:43.317Z,7.20
2018-08-24T06:48:46.528Z,7.65
2018-08-24T06:49:49.857Z,8.55
2018-08-24T06:50:53.220Z,8.43
2018-08-24T06:51:56.545Z,7.95
2018-08-24T06:53:00.001Z,9.40
2018-08-24T06:54:03.401Z,8.00
2018-08-24T06:55:06.915Z,8.50
2018-08-24T06:56:10.225Z,8.05
2018-08-24T06:57:13.575Z,8.80
2018-08-24T06:58:16.889Z,8.80
2018-08-24T06:59:20.239Z,8.48
2018-08-24T07:00:29.043Z,7.97
2018-08-24T07:01:32.379Z,9.00
2018-08-24T07:02:35.698Z,9.18
2018-08-24T07:03:39.040Z,8.75
2018-08-24T07:04:42.366Z,8.60
2018-08-24T07:05:45.706Z,9.65
2018-08-24T07:06:49.105Z,10.50
2018-08-24T07:07:52.571Z,11.12
2018-08-24T07:08:55.911Z,10.25
2018-08-24T07:09:59.225Z,9.30
2018-08-24T07:11:02.563Z,10.90
2018-08-24T07:12:12.800Z,10.50
2018-08-24T07:13:16.147Z,10.18
2018-08-24T07:14:19.534Z,10.48
2018-08-24T07:15:22.888Z,11.20
2018-08-24T07:16:26.216Z,10.80
2018-08-24T07:17:34.868Z,10.98
2018-08-24T07:18:38.250Z,11.15
2018-08-24T07:19:41.590Z,11.33
2018-08-24T07:20:44.948Z,11.30
2018-08-24T07:21:48.279Z,10.93
2018-08-24T07:22:51.599Z,10.48
2018-08-24T07:23:54.963Z,11.40
2018-08-24T07:24:58.308Z,10.85
2018-08-24T07:26:01.651Z,11.53
2018-08-24T07:27:05.008Z,9.68
2018-08-24T07:28:08.352Z,10.08
2018-08-24T07:29:11.815Z,11.85
2018-08-24T07:30:15.219Z,9.73
2018-08-24T07:31:18.531Z,9.80
2018-08-24T07:32:21.892Z,11.00
2018-08-24T07:33:25.260Z,11.00
2018-08-24T07:34:28.627Z,10.50
2018-08-24T07:35:31.982Z,10.80
2018-08-24T07:36:35.306Z,11.03
2018-08-24T07:37:38.639Z,11.53
2018-08-24T07:38:48.553Z,9.60
2018-08-24T07:39:51.923Z,10.60
2018-08-24T07:40:55.275Z,10.80
2018-08-24T07:41:58.687Z,11.05
2018-08-24T07:43:02.022Z,10.72
2018-08-24T07:44:05.534Z,11.85
2018-08-24T07:45:08.890Z,11.95
2018-08-24T07:46:12.210Z,11.93
2018-08-24T07:47:15.572Z,12.45
2018-08-24T07:48:18.950Z,12.20
2018-08-24T07:49:22.262Z,11.85
2018-08-24T07:50:25.595Z,13.10
2018-08-24T07:51:28.940Z,12.33
2018-08-24T07:52:32.320Z,13.10
2018-08-24T07:53:35.655Z,11.75
2018-08-24T07:54:38.978Z,12.40
2018-08-24T07:55:42.326Z,12.00
2018-08-24T07:56:45.661Z,12.88
2018-08-24T07:57:49.035Z,12.35
2018-08-24T07:58:52.410Z,12.98
2018-08-24T07:59:55.747Z,12.20
2018-08-24T08:00:59.086Z,13.05
2018-08-24T08:02:02.444Z,12.28
2018-08-24T08:03:05.808Z,12.30
2018-08-24T08:04:09.140Z,13.53
2018-08-24T08:05:12.576Z,13.35
2018-08-24T08:06:15.937Z,12.35
2018-08-24T08:07:19.339Z,13.08
2018-08-24T08:08:22.731Z,12.18
2018-08-24T08:09:26.072Z,12.58
2018-08-24T08:10:34.834Z,12.10
2018-08-24T08:11:39.175Z,12.65
2018-08-24T08:12:42.623Z,12.20
2018-08-24T08:13:45.911Z,13.08
2018-08-24T08:14:54.579Z,13.50
2018-08-24T08:15:57.940Z,12.33
2018-08-24T08:17:02.602Z,11.63
2018-08-24T08:18:06.130Z,12.63
2018-08-24T08:19:09.409Z,13.38
2018-08-24T08:20:12.732Z,13.30
2018-08-24T08:21:16.085Z,12.55
2018-08-24T08:22:26.155Z,13.20
2018-08-24T08:23:29.555Z,11.83
2018-08-24T08:24:32.975Z,13.93
2018-08-24T08:25:36.276Z,14.68
2018-08-24T08:26:39.606Z,14.38
2018-08-24T08:27:42.956Z,13.58
2018-08-24T08:28:46.281Z,12.53
2018-08-24T08:29:54.951Z,15.35
2018-08-24T08:30:58.284Z,15.30
2018-08-24T08:32:01.607Z,14.30
2018-08-24T08:33:04.960Z,13.90
2018-08-24T08:34:08.331Z,14.60
2018-08-24T08:35:11.687Z,16.17
2018-08-24T08:36:15.027Z,16.70
2018-08-24T08:37:24.828Z,16.90
2018-08-24T08:38:28.171Z,17.05
2018-08-24T08:39:31.561Z,16.45
2018-08-24T08:40:34.893Z,15.93
2018-08-24T08:41:38.257Z,16.25
2018-08-24T08:42:41.584Z,15.98
2018-08-24T08:43:44.918Z,16.97
2018-08-24T08:44:48.270Z,16.42
2018-08-24T08:45:51.946Z,16.27
2018-08-24T08:46:55.271Z,16.70
2018-08-24T08:47:58.652Z,18.25
2018-08-24T08:49:02.062Z,18.17
2018-08-24T08:50:05.438Z,18.95
2018-08-24T08:51:08.834Z,16.87
2018-08-24T08:52:12.696Z,18.98
2018-08-24T08:53:16.028Z,17.57
2018-08-24T08:54:19.405Z,18.70
2018-08-24T08:55:22.742Z,19.67
2018-08-24T08:56:26.132Z,24.15
2018-08-24T08:57:29.511Z,21.82
2018-08-24T08:58:32.862Z,17.73
2018-08-24T08:59:36.190Z,17.85
2018-08-24T09:00:39.516Z,16.67
2018-08-24T09:01:43.055Z,17.15
2018-08-24T09:02:46.427Z,18.42
2018-08-24T09:03:49.801Z,15.93
2018-08-24T09:04:53.376Z,17.37
2018-08-24T09:05:56.736Z,17.10
2018-08-24T09:08:09.785Z,16.23
2018-08-24T09:09:13.139Z,15.53
2018-08-24T09:10:16.500Z,16.25
2018-08-24T09:11:19.851Z,15.15
2018-08-24T09:12:23.189Z,15.90
2018-08-24T09:13:26.556Z,16.23
2018-08-24T09:14:29.902Z,15.98
2018-08-24T09:15:33.234Z,16.02
2018-08-24T09:16:36.597Z,15.93
2018-08-24T09:17:45.350Z,15.90
2018-08-24T09:18:53.886Z,14.85
2018-08-24T09:20:02.740Z,14.60
2018-08-24T09:21:11.726Z,14.70
2018-08-24T09:22:20.502Z,14.43
2018-08-24T09:23:29.203Z,15.55
2018-08-24T09:24:37.968Z,15.85
2018-08-24T09:25:46.754Z,16.67
2018-08-24T09:26:55.430Z,15.35
2018-08-24T09:28:04.031Z,17.25
2018-08-24T09:29:11.612Z,14.85
2018-08-24T09:30:14.962Z,14.20
2018-08-24T09:31:19.811Z,16.05
2018-08-24T09:32:23.208Z,16.10
2018-08-24T09:33:26.579Z,15.70
2018-08-24T09:34:29.956Z,14.35
2018-08-24T09:35:33.282Z,14.70
2018-08-24T09:36:36.685Z,15.05
2018-08-24T09:37:40.315Z,14.23
2018-08-24T09:38:43.679Z,13.25
2018-08-24T09:39:47.003Z,14.10
2018-08-24T09:40:55.881Z,14.55
2018-08-24T09:42:00.507Z,13.70
2018-08-24T09:43:09.327Z,13.78
2018-08-24T09:44:12.603Z,13.70
2018-08-24T09:45:15.991Z,12.53
2018-08-24T09:46:19.395Z,13.68
2018-08-24T09:47:28.212Z,13.13
2018-08-24T09:48:35.758Z,12.20
2018-08-24T09:49:40.238Z,12.75
2018-08-24T09:50:48.961Z,12.05
2018-08-24T09:51:52.302Z,12.13
2018-08-24T09:54:02.410Z,10.90
2018-08-24T09:55:05.810Z,12.80
2018-08-24T09:56:09.159Z,11.22
2018-08-24T09:57:12.539Z,11.70
2018-08-24T09:58:15.990Z,11.03
2018-08-24T09:59:19.366Z,10.18
2018-08-24T10:00:24.931Z,9.83
2018-08-24T10:01:33.734Z,10.60
2018-08-24T10:02:43.984Z,10.00
2018-08-24T10:03:52.776Z,9.53
2018-08-24T10:05:01.410Z,10.25
2018-08-24T10:06:10.046Z,10.48
2018-08-24T10:07:18.814Z,10.23
2018-08-24T10:08:27.499Z,10.65
2018-08-24T10:09:30.858Z,10.70
2018-08-24T10:10:34.244Z,10.10
2018-08-24T10:11:37.604Z,9.43
2018-08-24T10:12:40.983Z,10.05
2018-08-24T10:13:44.326Z,9.95
2018-08-24T10:14:47.644Z,9.85
2018-08-24T10:15:51.006Z,8.73
2018-08-24T10:16:54.331Z,9.73
2018-08-24T10:17:57.683Z,10.13
2018-08-24T10:19:01.120Z,10.20
2018-08-24T10:20:04.660Z,8.90
2018-08-24T10:21:08.302Z,9.10
2018-08-24T10:22:11.615Z,8.20
2018-08-24T10:23:15.032Z,8.25
2018-08-24T10:24:18.325Z,8.93
2018-08-24T10:25:21.651Z,8.03
2018-08-24T10:26:24.987Z,8.23
2018-08-24T10:27:28.351Z,7.50
2018-08-24T10:28:31.988Z,9.57
2018-08-24T10:29:35.354Z,8.87
2018-08-24T10:30:38.684Z,8.30
2018-08-24T10:32:51.747Z,8.15
2018-08-24T10:33:55.091Z,7.80
2018-08-24T10:34:58.466Z,7.63
2018-08-24T10:36:01.804Z,8.40
2018-08-24T10:37:05.416Z,7.93
2018-08-24T10:38:08.735Z,8.20
2018-08-24T10:39:12.458Z,8.18
2018-08-24T10:40:15.812Z,7.55
2018-08-24T10:41:19.163Z,8.17
2018-08-24T10:42:22.515Z,7.03
2018-08-24T10:43:25.834Z,7.23
2018-08-24T10:44:29.157Z,7.47
2018-08-24T10:45:32.502Z,7.03
2018-08-24T10:46:35.835Z,7.20
2018-08-24T10:47:39.154Z,6.90
2018-08-24T10:48:42.494Z,7.47
2018-08-24T10:49:45.839Z,6.90
2018-08-24T10:50:49.204Z,7.70
2018-08-24T10:51:52.513Z,7.83
2018-08-24T10:52:55.839Z,8.63
2018-08-24T10:53:59.226Z,7.50
2018-08-24T10:55:02.569Z,9.10
2018-08-24T10:56:06.324Z,8.67
2018-08-24T10:57:09.680Z,8.77
2018-08-24T10:58:13.003Z,8.60
2018-08-24T10:59:16.342Z,8.00
2018-08-24T11:00:19.677Z,7.77
2018-08-24T11:01:23.040Z,8.73
2018-08-24T11:02:26.358Z,7.60
2018-08-24T11:03:29.697Z,7.87
2018-08-24T11:04:33.038Z,7.93
2018-08-24T11:05:36.378Z,8.20
2018-08-24T11:06:39.742Z,9.40
2018-08-24T11:07:43.212Z,10.10
2018-08-24T11:08:46.455Z,8.70
2018-08-24T11:09:49.816Z,8.80
2018-08-24T11:10:53.131Z,9.40
2018-08-24T11:11:56.461Z,8.23
2018-08-24T11:12:59.824Z,9.40
2018-08-24T11:14:03.183Z,9.77
2018-08-24T11:15:06.515Z,9.33
2018-08-24T11:16:09.843Z,10.20
2018-08-24T11:17:13.189Z,11.33
2018-08-24T11:18:16.751Z,10.20
2018-08-24T11:19:20.126Z,10.33
2018-08-24T11:20:23.454Z,9.13
2018-08-24T11:21:26.808Z,9.90
2018-08-24T11:22:30.139Z,9.00
2018-08-24T11:23:33.458Z,9.90
2018-08-24T11:24:36.794Z,9.10
2018-08-24T11:25:40.147Z,10.35
2018-08-24T11:26:43.613Z,8.58
2018-08-24T11:27:46.927Z,8.85
2018-08-24T11:28:50.251Z,9.60
2018-08-24T11:29:53.628Z,8.85
2018-08-24T11:30:57.035Z,8.48
2018-08-24T11:32:00.368Z,9.35
2018-08-24T11:33:03.779Z,9.95
2018-08-24T11:34:07.429Z,9.68
2018-08-24T11:35:10.710Z,10.20
2018-08-24T11:36:14.077Z,11.00
2018-08-24T11:37:17.399Z,9.78
2018-08-24T11:38:20.768Z,10.20
2018-08-24T11:39:24.128Z,8.15
2018-08-24T11:40:27.467Z,7.70
2018-08-24T11:41:30.802Z,7.62
2018-08-24T11:42:34.167Z,5.95
2018-08-24T11:43:37.547Z,6.25
2018-08-24T11:44:40.876Z,7.03
2018-08-24T11:45:44.242Z,6.95
2018-08-24T11:46:47.572Z,5.78
2018-08-24T11:47:50.974Z,6.10
2018-08-24T11:48:54.275Z,5.75
2018-08-24T11:49:57.631Z,6.28
2018-08-24T11:51:01.300Z,6.67
2018-08-24T11:52:04.715Z,5.30
2018-08-24T11:53:08.043Z,5.53
2018-08-24T11:54:11.558Z,6.05
2018-08-24T11:55:14.869Z,5.12
2018-08-24T11:56:18.211Z,5.20
2018-08-24T11:57:21.585Z,6.72
2018-08-24T11:58:25.290Z,5.87
2018-08-24T11:59:28.659Z,5.60
2018-08-24T12:00:33.102Z,6.30
2018-08-24T12:01:36.455Z,5.60
2018-08-24T12:02:39.837Z,6.53
2018-08-24T12:03:43.220Z,5.70
2018-08-24T12:04:46.555Z,5.60
2018-08-24T12:05:49.879Z,5.77
2018-08-24T12:06:53.195Z,5.70
2018-08-24T12:07:56.872Z,5.77
2018-08-24T12:09:00.193Z,5.87
2018-08-24T12:10:03.622Z,6.10
2018-08-24T12:11:07.031Z,6.27
2018-08-24T12:12:10.413Z,6.50
2018-08-24T12:13:13.862Z,7.00
2018-08-24T12:14:17.253Z,6.67
2018-08-24T12:15:20.575Z,7.40
2018-08-24T12:16:24.107Z,6.77
2018-08-24T12:17:33.349Z,7.30
2018-08-24T12:18:36.692Z,6.60
2018-08-24T12:19:40.067Z,6.90
2018-08-24T12:20:43.442Z,5.70
2018-08-24T12:21:46.835Z,7.13
2018-08-24T12:22:50.187Z,7.60
2018-08-24T12:23:53.503Z,6.80
2018-08-24T12:24:56.836Z,6.80
2018-08-24T12:26:00.160Z,7.40
2018-08-24T12:27:03.596Z,7.80
2018-08-24T12:28:06.910Z,6.53
2018-08-24T12:29:10.294Z,7.37
2018-08-24T12:30:13.635Z,7.13
2018-08-24T12:31:16.955Z,6.50
2018-08-24T12:32:20.268Z,6.40
2018-08-24T12:33:23.579Z,5.57
2018-08-24T12:34:26.952Z,6.10
2018-08-24T12:35:30.274Z,6.87
2018-08-24T12:36:33.597Z,7.07
2018-08-24T12:37:42.408Z,6.90
2018-08-24T12:38:45.944Z,7.20
2018-08-24T12:39:49.306Z,6.73
2018-08-24T12:40:52.651Z,6.97
2018-08-24T12:41:56.003Z,6.40
2018-08-24T12:42:59.324Z,6.30
2018-08-24T12:44:02.668Z,5.93
2018-08-24T12:45:06.126Z,6.43
2018-08-24T12:46:09.760Z,4.90
2018-08-24T12:47:13.453Z,5.63
2018-08-24T12:48:16.784Z,5.47
2018-08-24T12:49:20.143Z,5.90
2018-08-24T12:50:23.511Z,6.00
2018-08-24T12:51:30.179Z,5.57
2018-08-24T12:52:33.522Z,5.40
2018-08-24T12:53:37.240Z,5.70
2018-08-24T12:54:40.559Z,6.27
2018-08-24T12:55:43.938Z,6.00
2018-08-24T12:56:47.271Z,5.70
2018-08-24T12:57:50.609Z,5.03
2018-08-24T12:58:53.960Z,5.30
2018-08-24T12:59:57.780Z,5.67
2018-08-24T13:01:01.144Z,5.23
2018-08-24T13:02:04.486Z,6.13
2018-08-24T13:03:07.840Z,18.30
2018-08-24T13:04:11.184Z,6.80
2018-08-24T13:05:14.555Z,5.07
2018-08-24T13:06:17.900Z,5.43
2018-08-24T13:07:21.235Z,4.50
2018-08-24T13:08:24.569Z,4.60
2018-08-24T13:09:27.902Z,5.10
2018-08-24T13:10:31.270Z,4.63
2018-08-24T13:11:34.636Z,4.93
2018-08-24T13:12:38.016Z,4.80
2018-08-24T13:13:41.625Z,4.70
2018-08-24T13:14:44.952Z,3.70
2018-08-24T13:15:48.272Z,4.30
2018-08-24T13:16:51.654Z,3.90
2018-08-24T13:17:54.987Z,3.90
2018-08-24T13:18:58.307Z,4.70
2018-08-24T13:20:01.650Z,4.53
2018-08-24T13:21:05.255Z,4.93
2018-08-24T13:22:08.691Z,4.80
2018-08-24T13:23:12.020Z,4.80
2018-08-24T13:24:15.543Z,4.00
2018-08-24T13:25:18.869Z,4.47
2018-08-24T13:26:22.192Z,4.10
2018-08-24T13:27:25.655Z,4.47
2018-08-24T13:28:28.939Z,4.93
2018-08-24T13:29:32.268Z,3.80
2018-08-24T13:30:35.583Z,3.93
2018-08-24T13:31:38.913Z,4.47
2018-08-24T13:32:42.323Z,3.73
2018-08-24T13:34:16.529Z,4.60
2018-08-24T13:35:19.846Z,4.10
2018-08-24T13:36:23.162Z,4.27
2018-08-24T13:37:26.527Z,4.10
2018-08-24T13:38:29.897Z,4.27
2018-08-24T13:39:33.220Z,4.10
2018-08-24T13:40:36.552Z,4.73
2018-08-24T13:41:39.858Z,4.23
2018-08-24T13:42:43.176Z,4.20
2018-08-24T13:43:46.599Z,4.50
2018-08-24T13:44:49.983Z,3.80
2018-08-24T13:45:53.296Z,4.10
2018-08-24T13:46:56.682Z,4.57
2018-08-24T13:48:00.032Z,3.33
2018-08-24T13:49:03.388Z,4.10
2018-08-24T13:50:06.711Z,4.23
2018-08-24T13:51:10.083Z,3.60
2018-08-24T13:52:13.451Z,4.67
2018-08-24T13:53:16.817Z,3.80
2018-08-24T13:54:20.148Z,5.07
2018-08-24T13:55:23.508Z,4.80
2018-08-24T13:56:26.869Z,4.03
2018-08-24T13:57:30.218Z,5.20
2018-08-24T13:58:33.540Z,4.33
2018-08-24T13:59:36.961Z,4.67
2018-08-24T14:00:40.232Z,4.70